Time;durP1;ratioP1;P1;durP2;ratioP2;P2;SDS_P1;SDS_P2;PMS_P1;PMS_P2;Temp;Humidity;BMP_temperature;BMP_pressure;BME280_temperature;BME280_humidity;BME280_pressure;Samples;Min_cycle;Max_cycle;Signal;HPM_P1;HPM_P2
2021/03/11 00:01:26;;;;;;;35.47;21.93;;;0.70;99.90;;;;;;5096496;28;20241;-68
2021/03/11 00:03:52;;;;;;;32.90;22.47;;;0.60;99.90;;;;;;5095118;28;20216;-67
2021/03/11 00:06:17;;;;;;;36.27;23.37;;;0.60;99.90;;;;;;5095229;28;20177;-69
2021/03/11 00:08:43;;;;;;;41.73;26.47;;;0.40;99.90;;;;;;5096369;28;20202;-68
2021/03/11 00:11:08;;;;;;;42.20;25.33;;;0.30;99.90;;;;;;5096359;28;20278;-68
2021/03/11 00:13:34;;;;;;;44.80;26.30;;;0.40;99.90;;;;;;5096285;28;20207;-67
2021/03/11 00:16:00;;;;;;;47.43;27.40;;;0.30;99.90;;;;;;5096283;28;20177;-68
2021/03/11 00:18:25;;;;;;;51.07;28.13;;;0.30;99.90;;;;;;5096141;28;20271;-68
2021/03/11 00:20:51;;;;;;;56.67;30.50;;;0.30;99.90;;;;;;5096075;28;20226;-67
2021/03/11 00:23:16;;;;;;;49.80;29.87;;;0.20;99.90;;;;;;5096071;28;20203;-67
2021/03/11 00:25:42;;;;;;;45.57;27.30;;;0.00;99.90;;;;;;5095995;28;20180;-69
2021/03/11 00:28:08;;;;;;;50.50;28.27;;;-0.10;99.90;;;;;;5096070;28;20669;-66
2021/03/11 00:30:33;;;;;;;49.67;30.07;;;-0.10;99.90;;;;;;5095913;28;20184;-68
2021/03/11 00:32:59;;;;;;;49.87;29.00;;;0.00;99.90;;;;;;5095829;28;20234;-69
2021/03/11 00:35:25;;;;;;;55.10;29.90;;;-0.10;99.90;;;;;;5095962;28;20875;-68
2021/03/11 00:37:51;;;;;;;53.47;29.70;;;-0.20;99.90;;;;;;5095697;28;20536;-66
2021/03/11 00:40:20;;;;;;;59.10;30.55;;;-0.20;99.90;;;;;;5095980;28;20338;-67
2021/03/11 00:42:46;;;;;;;52.70;29.10;;;-0.10;99.90;;;;;;5095654;28;20646;-66
2021/03/11 00:45:12;;;;;;;43.33;27.23;;;0.00;99.90;;;;;;5096123;28;20208;-66
2021/03/11 00:47:39;;;;;;;44.85;26.73;;;-0.20;99.90;;;;;;5094234;28;20175;-66
2021/03/11 00:50:17;;;;;;;45.10;27.77;;;-0.10;99.90;;;;;;5096019;28;20191;-66
2021/03/11 00:52:44;;;;;;;48.83;28.02;;;-0.20;99.90;;;;;;5094766;28;20172;-67
2021/03/11 00:55:11;;;;;;;53.95;31.77;;;-0.40;99.90;;;;;;5095919;28;20175;-67
2021/03/11 00:57:37;;;;;;;45.50;29.00;;;-0.60;99.90;;;;;;5095445;28;20169;-66
2021/03/11 01:00:05;;;;;;;41.92;26.27;;;-0.40;99.90;;;;;;5094353;28;20218;-67
2021/03/11 01:02:30;;;;;;;40.95;26.65;;;-0.40;99.90;;;;;;5095312;28;20168;-68
2021/03/11 01:04:56;;;;;;;45.23;25.57;;;-0.20;99.90;;;;;;5095465;28;20212;-67
2021/03/11 01:07:22;;;;;;;45.90;25.23;;;-0.10;99.90;;;;;;5095273;28;20259;-67
2021/03/11 01:09:47;;;;;;;39.63;25.80;;;0.00;99.90;;;;;;5095515;28;20220;-66
2021/03/11 01:12:14;;;;;;;40.33;25.63;;;-0.10;99.90;;;;;;5095265;28;20181;-67
2021/03/11 01:14:42;;;;;;;41.80;26.55;;;-0.20;99.90;;;;;;5094929;28;20738;-67
2021/03/11 01:17:08;;;;;;;43.60;25.55;;;-0.40;99.90;;;;;;5093714;28;20184;-66
2021/03/11 01:19:35;;;;;;;41.75;26.95;;;-0.40;99.90;;;;;;5095340;28;20219;-67
2021/03/11 01:22:00;;;;;;;47.15;27.73;;;-0.60;99.90;;;;;;5094966;28;20559;-67
2021/03/11 01:24:26;;;;;;;41.17;26.37;;;-0.70;99.90;;;;;;5095103;28;20219;-67
2021/03/11 01:26:51;;;;;;;46.07;25.90;;;-0.80;99.90;;;;;;5094820;28;20234;-68
2021/03/11 01:29:17;;;;;;;46.17;26.40;;;-0.70;99.90;;;;;;5095064;28;20204;-66
2021/03/11 01:31:43;;;;;;;43.70;25.77;;;-0.60;99.90;;;;;;5094778;28;20172;-68
2021/03/11 01:34:08;;;;;;;42.03;26.53;;;-0.70;99.90;;;;;;5094854;28;20241;-66
2021/03/11 01:36:34;;;;;;;44.70;26.37;;;-0.90;99.90;;;;;;5093386;28;20704;-68
2021/03/11 01:38:59;;;;;;;40.90;27.20;;;-0.90;99.90;;;;;;5094749;28;20247;-68
2021/03/11 01:41:25;;;;;;;40.80;26.33;;;-1.10;99.90;;;;;;5094605;28;20630;-67
2021/03/11 01:43:55;;;;;;;48.05;28.50;;;-0.90;99.90;;;;;;5094441;28;20216;-67
2021/03/11 01:46:22;;;;;;;47.15;27.23;;;-1.10;99.90;;;;;;5093240;28;20172;-68
2021/03/11 01:48:48;;;;;;;42.90;27.00;;;-0.90;99.90;;;;;;5094549;28;20569;-68
2021/03/11 01:51:14;;;;;;;46.80;27.10;;;-1.00;99.90;;;;;;5094410;28;20173;-67
2021/03/11 01:53:40;;;;;;;45.83;28.55;;;-1.10;99.90;;;;;;5094437;28;20195;-67
2021/03/11 01:56:05;;;;;;;37.20;25.13;;;-1.00;99.90;;;;;;5093016;28;20177;-67
2021/03/11 01:58:32;;;;;;;38.60;25.57;;;-1.30;99.90;;;;;;5094275;28;20200;-67
2021/03/11 02:00:57;;;;;;;38.78;24.98;;;-1.30;99.90;;;;;;5093009;28;20275;-67
2021/03/11 02:03:23;;;;;;;43.93;26.90;;;-1.40;99.90;;;;;;5094082;28;20239;-66
2021/03/11 02:05:49;;;;;;;46.23;26.87;;;-1.20;99.90;;;;;;5092656;28;20181;-67
2021/03/11 02:08:14;;;;;;;42.40;26.23;;;-1.30;99.90;;;;;;5094102;28;20263;-66
2021/03/11 02:10:40;;;;;;;38.72;25.30;;;-1.20;99.90;;;;;;5094095;28;20187;-67
2021/03/11 02:13:21;;;;;;;38.30;25.27;;;-1.60;99.90;;;;;;5093961;28;20223;-68
2021/03/11 02:15:53;;;;;;;41.90;24.60;;;-1.80;99.90;;;;;;5094042;28;20376;-68
2021/03/11 02:18:26;;;;;;;39.60;25.10;;;-1.60;99.90;;;;;;5092715;28;20205;-69
2021/03/11 02:21:05;;;;;;;42.03;25.58;;;-1.40;99.90;;;;;;5094031;28;20173;-66
2021/03/11 02:23:59;;;;;;;44.63;26.33;;;-1.50;99.90;;;;;;5093893;28;20250;-67
2021/03/11 02:26:54;;;;;;;41.17;24.75;;;-1.70;99.90;;;;;;5093933;28;20602;-67
2021/03/11 02:29:36;;;;;;;41.40;25.25;;;-1.50;99.90;;;;;;5092725;28;20204;-67
2021/03/11 02:32:05;;;;;;;48.22;27.10;;;-1.50;99.90;;;;;;5093941;28;20175;-68
2021/03/11 02:34:34;;;;;;;46.33;27.35;;;-1.60;99.90;;;;;;5094047;28;20275;-67
2021/03/11 02:37:10;;;;;;;44.25;26.17;;;-1.50;99.90;;;;;;5093785;28;20264;-66
2021/03/11 02:39:39;;;;;;;50.83;27.58;;;-1.60;99.90;;;;;;5093730;28;20198;-67
2021/03/11 02:42:07;;;;;;;41.90;25.98;;;-1.70;99.90;;;;;;5093742;28;20242;-67
2021/03/11 02:44:34;;;;;;;51.85;28.52;;;-1.90;99.90;;;;;;5093896;28;20208;-67
2021/03/11 02:47:00;;;;;;;46.55;26.58;;;-1.90;99.90;;;;;;5093701;28;20218;-68
2021/03/11 02:49:26;;;;;;;49.05;27.88;;;-2.10;99.90;;;;;;5093933;28;20699;-66
2021/03/11 02:51:53;;;;;;;45.80;28.77;;;-2.10;99.90;;;;;;5092421;28;20173;-67
2021/03/11 02:54:20;;;;;;;46.78;26.70;;;-2.10;99.90;;;;;;5093832;28;20941;-67
2021/03/11 02:56:47;;;;;;;47.85;27.23;;;-1.90;99.90;;;;;;5093609;28;20225;-67
2021/03/11 02:59:13;;;;;;;36.60;24.38;;;-2.10;99.90;;;;;;5092679;28;20214;-66
2021/03/11 03:01:40;;;;;;;41.55;26.02;;;-2.10;99.90;;;;;;5093524;28;20173;-67
2021/03/11 03:04:06;;;;;;;41.33;26.23;;;-2.20;99.90;;;;;;5093617;28;20216;-67
2021/03/11 03:06:33;;;;;;;52.03;28.40;;;-2.40;99.90;;;;;;5093496;28;20256;-68
2021/03/11 03:08:59;;;;;;;44.38;27.77;;;-2.50;99.90;;;;;;5093704;28;20203;-67
2021/03/11 03:11:25;;;;;;;42.67;25.95;;;-2.40;99.90;;;;;;5093504;28;20177;-68
2021/03/11 03:13:52;;;;;;;45.37;29.03;;;-2.20;99.90;;;;;;5093503;28;20583;-68
2021/03/11 03:16:18;;;;;;;47.83;28.60;;;-2.50;99.90;;;;;;5093932;28;20188;-68
2021/03/11 03:18:45;;;;;;;47.75;27.70;;;-2.40;99.90;;;;;;5097365;28;20231;-67
2021/03/11 03:21:12;;;;;;;51.08;28.40;;;-2.30;99.90;;;;;;5097304;28;20183;-66
2021/03/11 03:23:42;;;;;;;56.38;30.38;;;-2.40;99.90;;;;;;5097155;28;20205;-66
2021/03/11 03:26:07;;;;;;;50.28;28.33;;;-2.40;99.90;;;;;;5097176;28;20230;-68
2021/03/11 03:28:33;;;;;;;51.83;29.60;;;-2.30;99.90;;;;;;5097231;28;20208;-66
2021/03/11 03:30:59;;;;;;;47.93;28.37;;;-2.30;99.90;;;;;;5095885;28;20637;-68
2021/03/11 03:33:24;;;;;;;58.17;30.37;;;-2.30;99.90;;;;;;5096998;28;20499;-66
2021/03/11 03:35:50;;;;;;;47.90;26.93;;;-2.40;99.90;;;;;;5096977;28;20192;-68
2021/03/11 03:38:16;;;;;;;47.03;29.20;;;-2.30;99.90;;;;;;5096915;28;20200;-67
2021/03/11 03:40:43;;;;;;;47.43;29.63;;;-2.30;99.90;;;;;;5096650;28;20299;-68
2021/03/11 03:43:32;;;;;;;47.53;28.65;;;-2.30;99.90;;;;;;5095444;28;20220;-66
2021/03/11 03:46:08;;;;;;;52.28;28.75;;;-2.30;99.90;;;;;;5096936;28;20268;-67
2021/03/11 03:48:43;;;;;;;53.72;29.48;;;-2.40;99.90;;;;;;5096822;28;20249;-67
2021/03/11 03:51:10;;;;;;;51.45;29.65;;;-2.60;99.90;;;;;;5095454;28;20192;-67
2021/03/11 03:53:45;;;;;;;42.58;28.85;;;-2.60;99.90;;;;;;5096572;28;20574;-67
2021/03/11 03:56:33;;;;;;;52.53;29.70;;;-2.60;99.90;;;;;;5096640;28;20177;-67
2021/03/11 03:59:04;;;;;;;48.60;29.00;;;-2.50;99.90;;;;;;5096791;28;20203;-66
2021/03/11 04:01:33;;;;;;;54.20;31.63;;;-2.40;99.90;;;;;;5096519;28;20161;-66
2021/03/11 04:04:03;;;;;;;51.63;28.25;;;-2.60;99.90;;;;;;5096635;28;20192;-67
2021/03/11 04:06:30;;;;;;;49.85;29.98;;;-2.70;99.90;;;;;;5096403;28;20518;-68
2021/03/11 04:08:56;;;;;;;48.92;29.67;;;-2.80;99.90;;;;;;5096633;28;20195;-66
2021/03/11 04:11:22;;;;;;;41.83;27.83;;;-2.70;99.90;;;;;;5095120;28;20639;-67
2021/03/11 04:13:50;;;;;;;43.07;27.90;;;-2.60;99.90;;;;;;5096189;28;20220;-67
2021/03/11 04:16:17;;;;;;;48.97;29.23;;;-2.60;99.90;;;;;;5096204;28;20181;-68
2021/03/11 04:18:44;;;;;;;47.15;28.77;;;-2.70;99.90;;;;;;5094778;28;20338;-67
2021/03/11 04:21:11;;;;;;;56.42;30.23;;;-2.70;99.90;;;;;;5094859;28;20657;-68
2021/03/11 04:23:38;;;;;;;43.88;28.23;;;-2.70;99.90;;;;;;5096180;28;20193;-66
2021/03/11 04:26:05;;;;;;;53.70;27.88;;;-3.10;99.90;;;;;;5096103;28;20172;-67
2021/03/11 04:28:32;;;;;;;47.65;27.67;;;-2.90;99.90;;;;;;5095754;28;20208;-68
2021/03/11 04:30:58;;;;;;;43.22;27.77;;;-2.80;99.90;;;;;;5094735;28;20198;-68
2021/03/11 04:33:24;;;;;;;44.50;28.00;;;-2.80;99.90;;;;;;5095824;28;20200;-66
2021/03/11 04:35:51;;;;;;;54.92;28.10;;;-2.90;99.90;;;;;;5094485;28;20414;-68
2021/03/11 04:38:17;;;;;;;50.08;28.10;;;-2.80;99.90;;;;;;5095778;28;20275;-67
2021/03/11 04:40:43;;;;;;;43.83;26.48;;;-3.20;99.90;;;;;;5095544;28;20220;-67
2021/03/11 04:43:09;;;;;;;43.70;26.77;;;-3.20;99.90;;;;;;5095679;28;20196;-67
2021/03/11 04:45:35;;;;;;;44.70;25.98;;;-3.10;99.90;;;;;;5095729;28;20208;-67
2021/03/11 04:48:02;;;;;;;53.40;27.40;;;-3.10;99.90;;;;;;5095528;28;20564;-69
2021/03/11 04:50:29;;;;;;;45.40;27.48;;;-2.90;99.90;;;;;;5095574;28;20475;-68
2021/03/11 04:52:57;;;;;;;46.95;25.17;;;-2.80;99.90;;;;;;5095542;28;20195;-66
2021/03/11 04:55:23;;;;;;;47.83;27.05;;;-2.70;99.90;;;;;;5095909;28;20219;-66
2021/03/11 04:57:48;;;;;;;46.47;26.00;;;-2.70;99.90;;;;;;5095322;28;20176;-66
2021/03/11 05:00:17;;;;;;;49.93;26.80;;;-2.80;99.90;;;;;;5095363;28;20181;-67
2021/03/11 05:02:46;;;;;;;42.90;25.38;;;-2.90;99.90;;;;;;5094375;28;20641;-67
2021/03/11 05:05:12;;;;;;;48.72;25.45;;;-2.80;99.90;;;;;;5094297;28;20177;-66
2021/03/11 05:07:38;;;;;;;46.55;25.58;;;-2.80;99.90;;;;;;5095160;28;20185;-67
2021/03/11 05:10:04;;;;;;;50.63;27.73;;;-2.80;99.90;;;;;;5095694;28;20172;-67
2021/03/11 05:12:30;;;;;;;45.00;24.75;;;-2.80;99.90;;;;;;5095191;28;20176;-68
2021/03/11 05:14:56;;;;;;;46.90;27.10;;;-2.70;99.90;;;;;;5084419;28;20217;-66
2021/03/11 05:17:21;;;;;;;49.73;25.70;;;-2.60;99.90;;;;;;5073059;28;20260;-67
2021/03/11 05:19:47;;;;;;;46.57;25.57;;;-2.70;99.90;;;;;;5074198;28;20409;-66
2021/03/11 05:22:12;;;;;;;51.60;26.87;;;-2.60;99.90;;;;;;5073445;28;20256;-67
2021/03/11 05:24:38;;;;;;;48.47;27.47;;;-2.60;99.90;;;;;;5074677;28;20208;-66
2021/03/11 05:27:04;;;;;;;69.90;34.90;;;-2.40;99.90;;;;;;5073150;28;20554;-67
2021/03/11 05:29:29;;;;;;;46.87;24.50;;;-2.40;99.90;;;;;;5074500;28;20201;-66
2021/03/11 05:31:55;;;;;;;45.50;23.97;;;-0.90;99.90;;;;;;5074620;28;20812;-66
2021/03/11 05:34:20;;;;;;;41.70;22.37;;;0.00;99.90;;;;;;5074551;28;20213;-66
2021/03/11 05:36:46;;;;;;;46.00;27.57;;;0.70;99.90;;;;;;5074470;28;20181;-68
2021/03/11 05:39:12;;;;;;;46.53;25.60;;;1.10;99.90;;;;;;5074041;28;20193;-67
2021/03/11 05:41:44;;;;;;;46.05;26.13;;;1.40;99.90;;;;;;5073015;28;20237;-66
2021/03/11 05:44:10;;;;;;;53.05;28.58;;;1.70;99.90;;;;;;5073069;28;20192;-66
2021/03/11 05:46:39;;;;;;;49.22;27.30;;;2.00;99.90;;;;;;5074234;28;20669;-67
2021/03/11 05:49:07;;;;;;;63.97;36.20;;;2.20;99.90;;;;;;5074396;28;20193;-67
2021/03/11 05:51:33;;;;;;;84.47;47.08;;;1.80;99.90;;;;;;5072953;28;20556;-68
2021/03/11 05:54:01;;;;;;;70.97;39.43;;;0.00;99.90;;;;;;5074203;28;20213;-68
2021/03/11 05:56:27;;;;;;;62.65;32.33;;;-0.90;99.90;;;;;;5074037;28;20393;-67
2021/03/11 05:58:55;;;;;;;61.00;34.80;;;-1.10;99.90;;;;;;5072631;28;20732;-67
2021/03/11 06:01:23;;;;;;;53.08;30.65;;;-1.20;99.90;;;;;;5074054;28;20411;-67
2021/03/11 06:03:50;;;;;;;55.95;32.95;;;-1.40;99.90;;;;;;5074042;28;20197;-68
2021/03/11 06:06:16;;;;;;;53.10;31.50;;;-1.50;99.90;;;;;;5073954;28;20223;-67
2021/03/11 06:08:43;;;;;;;74.40;37.67;;;-1.80;99.90;;;;;;5073894;28;20203;-69
2021/03/11 06:11:09;;;;;;;98.43;45.58;;;-1.70;99.90;;;;;;5073964;28;20185;-67
2021/03/11 06:13:35;;;;;;;77.83;40.50;;;-1.70;99.90;;;;;;5073625;28;20205;-68
2021/03/11 06:16:09;;;;;;;69.78;34.55;;;-1.70;99.90;;;;;;5073853;28;20401;-68
2021/03/11 06:18:36;;;;;;;61.35;34.97;;;-1.50;99.90;;;;;;5073829;28;20234;-66
2021/03/11 06:21:02;;;;;;;58.72;36.10;;;-1.40;99.90;;;;;;5073687;28;20169;-67
2021/03/11 06:23:30;;;;;;;74.38;39.78;;;-1.30;99.90;;;;;;5073676;28;20197;-66
2021/03/11 06:25:58;;;;;;;74.97;41.83;;;-1.30;99.90;;;;;;5073704;28;20222;-68
2021/03/11 06:28:45;;;;;;;65.43;38.03;;;-1.10;99.90;;;;;;5073740;28;20250;-66
2021/03/11 06:31:24;;;;;;;69.00;36.08;;;-0.80;99.90;;;;;;5073709;28;20181;-67
2021/03/11 06:33:52;;;;;;;58.83;35.20;;;-0.60;99.90;;;;;;5073677;28;20208;-67
2021/03/11 06:36:19;;;;;;;50.28;29.60;;;-0.50;99.90;;;;;;5073630;28;20627;-67
2021/03/11 06:38:45;;;;;;;58.50;30.25;;;-0.30;99.90;;;;;;5072169;28;20204;-67
2021/03/11 06:41:11;;;;;;;54.33;30.63;;;-0.30;99.90;;;;;;5072102;28;20307;-68
2021/03/11 06:43:57;;;;;;;63.63;34.77;;;-0.20;99.90;;;;;;5073507;28;20201;-66
2021/03/11 06:46:25;;;;;;;103.78;51.13;;;-0.10;99.90;;;;;;5073456;28;20227;-66
2021/03/11 06:49:11;;;;;;;42.15;26.95;;;0.00;99.90;;;;;;5072165;28;20212;-66
2021/03/11 06:51:37;;;;;;;54.78;33.30;;;0.10;99.90;;;;;;5074590;28;20626;-66
2021/03/11 06:54:04;;;;;;;51.55;33.00;;;0.20;99.90;;;;;;5080860;28;20573;-66
2021/03/11 06:56:30;;;;;;;52.97;31.90;;;0.20;99.90;;;;;;5096257;28;20188;-66
2021/03/11 06:58:56;;;;;;;52.63;30.97;;;0.30;99.90;;;;;;5097808;28;20208;-67
2021/03/11 07:01:23;;;;;;;43.35;26.55;;;0.50;99.90;;;;;;5096330;28;20496;-67
2021/03/11 07:03:49;;;;;;;43.83;25.92;;;0.60;99.90;;;;;;5096533;28;20200;-67
2021/03/11 07:06:33;;;;;;;36.67;23.27;;;0.80;99.90;;;;;;5095813;28;20181;-67
2021/03/11 07:08:59;;;;;;;38.75;26.15;;;0.90;99.90;;;;;;5097528;28;20411;-68
2021/03/11 07:11:27;;;;;;;39.55;24.75;;;0.70;99.90;;;;;;5096082;28;20676;-68
2021/03/11 07:13:54;;;;;;;45.20;24.77;;;1.00;99.90;;;;;;5097457;28;20212;-68
2021/03/11 07:16:23;;;;;;;36.60;24.08;;;1.00;99.90;;;;;;5096465;28;20191;-67
2021/03/11 07:19:09;;;;;;;39.15;23.27;;;1.10;99.90;;;;;;5097411;28;20210;-67
2021/03/11 07:21:53;;;;;;;34.53;22.75;;;1.30;99.90;;;;;;5096697;28;20563;-68
2021/03/11 07:24:32;;;;;;;35.67;22.85;;;1.40;99.90;;;;;;5096984;28;20207;-68
2021/03/11 07:26:59;;;;;;;34.72;23.73;;;1.50;99.90;;;;;;5097124;28;20234;-67
2021/03/11 07:29:25;;;;;;;33.83;20.15;;;1.70;99.90;;;;;;5095746;28;20212;-68
2021/03/11 07:31:54;;;;;;;43.75;24.80;;;1.60;99.90;;;;;;5095276;28;20189;-66
2021/03/11 07:34:27;;;;;;;34.10;23.42;;;1.80;99.90;;;;;;5097074;28;20748;-68
2021/03/11 07:36:57;;;;;;;36.92;24.60;;;2.10;99.90;;;;;;5096986;28;20168;-68
2021/03/11 07:39:39;;;;;;;40.83;26.92;;;2.20;99.90;;;;;;5097183;28;20187;-68
2021/03/11 07:42:06;;;;;;;41.25;27.17;;;2.30;99.90;;;;;;5097392;28;20235;-69
2021/03/11 07:44:33;;;;;;;39.47;24.40;;;2.40;99.90;;;;;;5096746;28;20249;-68
2021/03/11 07:47:00;;;;;;;39.53;25.20;;;2.50;99.90;;;;;;5095651;28;20200;-69
2021/03/11 07:49:29;;;;;;;34.85;25.08;;;2.70;99.90;;;;;;5096822;28;20245;-68
2021/03/11 07:51:55;;;;;;;37.60;24.58;;;2.80;99.90;;;;;;5089003;28;20192;-67
2021/03/11 07:54:22;;;;;;;41.13;25.48;;;2.70;99.90;;;;;;5096811;28;20613;-68
2021/03/11 07:56:49;;;;;;;37.97;24.60;;;2.90;99.90;;;;;;5095734;28;20246;-67
2021/03/11 07:59:15;;;;;;;41.45;25.55;;;3.10;99.90;;;;;;5093033;28;20257;-67
2021/03/11 08:01:53;;;;;;;34.63;24.77;;;3.30;99.90;;;;;;5094889;28;20180;-68
2021/03/11 08:04:21;;;;;;;36.10;22.83;;;3.50;99.90;;;;;;5102894;28;20457;-67
2021/03/11 08:06:46;;;;;;;39.13;22.90;;;3.60;99.90;;;;;;5089727;28;20574;-69
2021/03/11 08:09:12;;;;;;;33.93;22.43;;;3.60;99.90;;;;;;5095223;28;20192;-69
2021/03/11 08:11:40;;;;;;;37.43;25.33;;;3.90;99.90;;;;;;5074542;28;20193;-67
2021/03/11 08:14:25;;;;;;;40.88;28.30;;;4.20;99.90;;;;;;5078266;28;20469;-68
2021/03/11 08:16:52;;;;;;;45.47;23.00;;;4.60;99.90;;;;;;5073847;28;20676;-69
2021/03/11 08:19:36;;;;;;;34.53;24.30;;;5.00;99.90;;;;;;5093103;28;20227;-67
2021/03/11 08:22:05;;;;;;;40.10;24.40;;;5.10;99.90;;;;;;5094949;28;20192;-69
2021/03/11 08:24:47;;;;;;;32.03;24.70;;;4.90;99.90;;;;;;5084829;28;20603;-67
2021/03/11 08:27:31;;;;;;;38.85;29.80;;;5.20;99.90;;;;;;5095471;28;20221;-69
2021/03/11 08:29:59;;;;;;;44.22;30.33;;;5.80;97.30;;;;;;5096202;28;20192;-67
2021/03/11 08:32:48;;;;;;;33.65;25.23;;;5.70;98.00;;;;;;5095248;28;20260;-68
2021/03/11 08:35:28;;;;;;;32.45;22.48;;;6.80;95.50;;;;;;5095683;28;20223;-67
2021/03/11 08:37:55;;;;;;;34.40;25.80;;;6.10;94.90;;;;;;5097187;28;20204;-67
2021/03/11 08:40:34;;;;;;;34.88;27.73;;;6.70;93.50;;;;;;5100161;28;20617;-68
2021/03/11 08:43:00;;;;;;;35.92;27.90;;;6.90;91.90;;;;;;5093587;28;20630;-68
2021/03/11 08:45:35;;;;;;;36.67;28.40;;;6.80;90.70;;;;;;5103421;28;20211;-68
2021/03/11 08:48:10;;;;;;;41.30;30.55;;;8.10;90.30;;;;;;5089483;28;20286;-68
2021/03/11 08:50:35;;;;;;;37.40;28.40;;;7.90;87.70;;;;;;5094206;28;20192;-68
2021/03/11 08:53:01;;;;;;;38.73;28.40;;;8.80;85.10;;;;;;5099638;28;20727;-70
2021/03/11 08:55:31;;;;;;;37.50;30.97;;;9.40;82.00;;;;;;5100053;28;20212;-68
2021/03/11 08:57:58;;;;;;;32.40;26.17;;;8.70;81.20;;;;;;5096109;28;20205;-68
2021/03/11 09:00:59;;;;;;;36.57;29.10;;;8.90;79.10;;;;;;5083182;28;20412;-69
2021/03/11 09:03:44;;;;;;;35.27;27.57;;;9.80;76.90;;;;;;5094549;28;20815;-70
2021/03/11 09:06:11;;;;;;;34.93;27.07;;;9.10;76.80;;;;;;5093589;28;20460;-68
2021/03/11 09:08:54;;;;;;;32.90;26.67;;;10.20;75.50;;;;;;5094698;28;20449;-68
2021/03/11 09:11:24;;;;;;;33.70;26.70;;;10.00;73.60;;;;;;5094781;28;20413;-68
2021/03/11 09:13:52;;;;;;;31.60;25.50;;;10.60;73.30;;;;;;5091657;28;20551;-69
2021/03/11 09:16:27;;;;;;;36.13;28.03;;;11.00;70.80;;;;;;5093992;28;20837;-70
2021/03/11 09:18:57;;;;;;;36.37;28.23;;;9.60;71.60;;;;;;5093612;28;20476;-68
2021/03/11 09:21:32;;;;;;;35.00;28.70;;;10.70;70.30;;;;;;5092900;28;20901;-70
2021/03/11 09:23:57;;;;;;;31.47;27.30;;;11.20;68.70;;;;;;5087627;28;20452;-67
2021/03/11 09:26:29;;;;;;;33.23;27.00;;;9.20;70.00;;;;;;5094569;28;20427;-70
2021/03/11 09:28:56;;;;;;;35.00;28.93;;;9.30;69.80;;;;;;5092726;28;20199;-68
2021/03/11 09:31:26;;;;;;;42.53;30.63;;;9.90;70.80;;;;;;5090947;28;20428;-70
2021/03/11 09:33:56;;;;;;;37.90;29.07;;;9.20;70.60;;;;;;5091669;28;20551;-68
2021/03/11 09:36:24;;;;;;;35.97;27.23;;;9.60;70.50;;;;;;5093447;28;20425;-69
2021/03/11 09:38:51;;;;;;;35.07;28.40;;;10.20;67.00;;;;;;5094390;28;20456;-70
2021/03/11 09:41:24;;;;;;;37.40;31.47;;;10.90;68.00;;;;;;5091612;28;20467;-68
2021/03/11 09:43:50;;;;;;;36.00;29.03;;;11.20;67.10;;;;;;5087300;28;20480;-69
2021/03/11 09:46:17;;;;;;;32.40;27.97;;;10.70;66.80;;;;;;5083057;28;20417;-68
2021/03/11 09:48:47;;;;;;;38.43;30.17;;;11.00;66.20;;;;;;5075236;28;20197;-67
2021/03/11 09:51:24;;;;;;;34.77;28.17;;;10.90;65.20;;;;;;5080383;28;20789;-69
2021/03/11 09:54:00;;;;;;;29.07;25.20;;;10.60;66.00;;;;;;5083936;28;21598;-68
2021/03/11 09:56:31;;;;;;;30.07;26.70;;;10.50;65.50;;;;;;5074153;28;20528;-67
2021/03/11 09:59:05;;;;;;;35.90;25.03;;;10.20;64.70;;;;;;5089614;28;20495;-67
2021/03/11 10:01:38;;;;;;;36.60;28.70;;;10.10;64.60;;;;;;5091989;28;20432;-69
2021/03/11 10:04:16;;;;;;;30.27;23.97;;;11.20;63.10;;;;;;5082495;28;20506;-67
2021/03/11 10:06:56;;;;;;;32.10;26.70;;;10.50;61.90;;;;;;5091007;28;20429;-69
2021/03/11 10:09:23;;;;;;;27.63;23.40;;;10.70;62.00;;;;;;5093669;28;20451;-70
2021/03/11 10:11:52;;;;;;;30.87;24.50;;;10.70;61.40;;;;;;5092838;28;20478;-66
2021/03/11 10:14:21;;;;;;;31.63;26.00;;;9.90;61.10;;;;;;5092639;28;20484;-66
2021/03/11 10:16:49;;;;;;;36.67;27.47;;;10.50;61.50;;;;;;5082841;28;20437;-69
2021/03/11 10:19:20;;;;;;;28.83;20.70;;;10.50;61.10;;;;;;5091625;28;20472;-68
2021/03/11 10:22:03;;;;;;;25.77;21.80;;;9.20;61.00;;;;;;5090642;28;20861;-66
2021/03/11 10:24:51;;;;;;;22.90;20.60;;;9.50;56.40;;;;;;5091797;28;20461;-66
2021/03/11 10:27:30;;;;;;;24.83;20.17;;;9.60;56.10;;;;;;5073120;28;20776;-66
2021/03/11 10:30:27;;;;;;;24.80;21.00;;;10.10;56.20;;;;;;5091019;28;20527;-66
2021/03/11 10:32:55;;;;;;;33.40;22.50;;;10.00;56.40;;;;;;5085236;28;20441;-66
2021/03/11 10:35:25;;;;;;;32.13;23.10;;;10.00;57.40;;;;;;5090895;28;20468;-66
2021/03/11 10:37:51;;;;;;;31.20;24.13;;;9.70;58.20;;;;;;5090133;28;20421;-69
2021/03/11 10:40:22;;;;;;;34.73;24.30;;;9.90;57.20;;;;;;5090767;28;21035;-69
2021/03/11 10:42:55;;;;;;;28.60;25.13;;;9.80;56.80;;;;;;5090673;28;20231;-65
2021/03/11 10:45:26;;;;;;;29.45;21.80;;;10.30;56.30;;;;;;5090768;28;20468;-68
2021/03/11 10:48:04;;;;;;;28.23;23.10;;;9.90;56.70;;;;;;5092590;28;20215;-68
2021/03/11 10:50:37;;;;;;;28.27;22.20;;;10.00;56.40;;;;;;5105105;28;20431;-66
2021/03/11 10:53:03;;;;;;;27.02;24.05;;;10.00;55.80;;;;;;5095819;28;20218;-68
2021/03/11 10:55:30;;;;;;;33.90;23.20;;;10.40;56.10;;;;;;5090831;28;20265;-68
2021/03/11 10:57:57;;;;;;;26.17;21.20;;;10.40;56.10;;;;;;5100766;28;20257;-65
2021/03/11 11:00:44;;;;;;;25.63;21.58;;;10.30;55.30;;;;;;5103640;28;20180;-68
2021/03/11 11:03:09;;;;;;;29.58;24.00;;;11.00;55.00;;;;;;5088473;28;20224;-66
2021/03/11 11:05:35;;;;;;;29.93;24.53;;;10.90;55.20;;;;;;5088300;28;21431;-67
2021/03/11 11:08:01;;;;;;;30.90;25.80;;;10.20;55.20;;;;;;5087286;28;20722;-66
2021/03/11 11:10:31;;;;;;;32.33;26.25;;;9.90;55.80;;;;;;5086983;28;20696;-66
2021/03/11 11:12:56;;;;;;;32.10;25.77;;;10.60;55.80;;;;;;5086088;28;20208;-66
2021/03/11 11:15:23;;;;;;;38.10;28.50;;;10.30;55.80;;;;;;5082386;28;20204;-69
2021/03/11 11:17:48;;;;;;;34.05;25.90;;;10.80;55.90;;;;;;5086113;28;20550;-65
2021/03/11 11:20:16;;;;;;;34.73;26.13;;;10.30;55.70;;;;;;5087890;28;20193;-67
2021/03/11 11:22:42;;;;;;;31.15;25.98;;;10.60;56.50;;;;;;5087609;28;20177;-67
2021/03/11 11:25:09;;;;;;;33.42;27.20;;;9.70;55.50;;;;;;5088952;28;20180;-65
2021/03/11 11:27:35;;;;;;;34.80;26.85;;;10.00;55.60;;;;;;5089946;28;20551;-67
2021/03/11 11:30:01;;;;;;;32.20;24.20;;;10.00;55.20;;;;;;5090316;28;20184;-66
2021/03/11 11:32:26;;;;;;;34.20;28.67;;;10.20;55.20;;;;;;5087024;28;20648;-66
2021/03/11 11:34:52;;;;;;;32.50;26.80;;;10.40;54.90;;;;;;5090632;28;20243;-67
2021/03/11 11:37:22;;;;;;;33.80;22.15;;;10.40;55.60;;;;;;5094726;28;20645;-68
2021/03/11 11:39:49;;;;;;;29.50;25.60;;;9.90;55.00;;;;;;5093486;28;20611;-68
2021/03/11 11:42:16;;;;;;;47.22;35.65;;;10.20;54.50;;;;;;5094121;28;20714;-68
2021/03/11 11:44:42;;;;;;;29.58;24.75;;;10.00;54.40;;;;;;5094307;28;20223;-66
2021/03/11 11:47:08;;;;;;;29.88;25.55;;;10.60;54.10;;;;;;5095294;28;20216;-66
2021/03/11 11:49:34;;;;;;;28.87;23.03;;;10.00;53.40;;;;;;5095339;28;20228;-65
2021/03/11 11:52:00;;;;;;;33.03;23.40;;;10.90;53.40;;;;;;5092599;28;20440;-69
2021/03/11 11:54:26;;;;;;;28.00;24.43;;;11.00;53.40;;;;;;5091202;28;20713;-65
2021/03/11 11:56:52;;;;;;;28.95;21.80;;;10.60;53.50;;;;;;5083257;28;20754;-66
2021/03/11 11:59:19;;;;;;;30.25;23.95;;;11.00;52.60;;;;;;5094871;28;20204;-67
2021/03/11 12:01:45;;;;;;;26.92;22.65;;;10.80;52.90;;;;;;5091689;28;20176;-65
2021/03/11 12:04:11;;;;;;;26.77;22.33;;;11.00;53.80;;;;;;5096090;28;20239;-67
2021/03/11 12:06:38;;;;;;;28.25;20.83;;;10.70;52.70;;;;;;5085909;28;20191;-68
2021/03/11 12:09:05;;;;;;;27.08;22.80;;;10.70;52.60;;;;;;5094925;28;20207;-67
2021/03/11 12:11:30;;;;;;;28.08;25.20;;;10.70;52.60;;;;;;5093251;28;20193;-68
2021/03/11 12:13:56;;;;;;;29.97;23.00;;;11.00;51.90;;;;;;5095025;28;20215;-69
2021/03/11 12:16:22;;;;;;;23.53;18.07;;;11.30;52.60;;;;;;5094279;28;20421;-69
2021/03/11 12:18:48;;;;;;;23.20;18.90;;;11.00;52.80;;;;;;5096081;28;20200;-68
2021/03/11 12:21:13;;;;;;;22.67;19.07;;;10.90;52.50;;;;;;5095585;28;20204;-70
2021/03/11 12:23:39;;;;;;;21.20;18.90;;;10.90;50.70;;;;;;5094791;28;20542;-70
2021/03/11 12:26:04;;;;;;;21.87;19.27;;;11.00;50.90;;;;;;5094431;28;20234;-68
2021/03/11 12:28:30;;;;;;;20.47;16.47;;;10.40;50.20;;;;;;5094693;28;20235;-69
2021/03/11 12:30:56;;;;;;;22.80;16.90;;;10.50;50.90;;;;;;5095928;28;20176;-69
2021/03/11 12:33:21;;;;;;;26.10;19.10;;;10.40;51.90;;;;;;5102451;28;20206;-69
2021/03/11 12:35:47;;;;;;;27.60;17.90;;;10.80;51.20;;;;;;5112950;28;20231;-68
2021/03/11 12:38:14;;;;;;;27.73;20.23;;;11.00;50.40;;;;;;5097893;28;20204;-68
2021/03/11 12:40:40;;;;;;;23.67;19.52;;;10.70;51.30;;;;;;5094065;28;20228;-69